Airfield :
LOGIN :

Register | Disclaimer

   EN    FR    IT 

 










Legend :    VFR   Marginal VFR   IFR   Intensive IFR   Very Intensive IFR
Visi :
Ceiling :
>= 8 km
>= 3000ft
5 to 8 km
1000 to 3000 ft
1500m to 5 km
500 to 1000 ft
800 to 1500m
200 to 500 ft
< 800m
< 200 ft
Symbols :   Thunderstorms  Fog  Heavy snow  Heavy precipitations  Wind > 20 kt
SIGMETs :     Misc.  Thunderstorms  Icing  Turbulence  Mountain Waves  Volcanic Ashes







- Airport Elevation : 302 ft
- Download approach charts


LFPM - Melun Villaroche

CURRENT METAR :
  • 210230Z AUTO 13004KT 3300 BR NSC M02/M02 Q1009

EXPIRED METARs :
  • 210200Z AUTO 14004KT 3600 BR NSC M02/M02 Q1009
  • 210130Z AUTO 16006KT 3900 BR NSC M02/M02 Q1008
  • 210100Z AUTO 15004KT 3200 BR NSC M02/M02 Q1008
  • 210030Z AUTO 14005KT 2800 BR NSC M01/M01 Q1008
  • 210000Z AUTO 15003KT 2700 BR NSC M01/M01 Q1007
  • 202330Z AUTO 12006KT 2700 BR NSC M01/M01 Q1007

Expired Forecast.
ATIS : +33 1 64 14 28 44
No reported NOTAMs for that airfield.



MET'MAP, your aeronautical weather chart ! - Copyright ORBIFLY December 2007 - Disclaimer

ORBIFLY MET'MAP TEAM :

Programming & Development : Alexandra Zaïnal
Concept & Development : Baudouin d'Aumeries
Co-Development & Prog : Marc-Olivier Méhu
Technical & hardware support : Manuel Goepfert

Contact : metmap@orbifly.com




SOURCES & CREDITS :

   NOAA